createdAt,value
2023-01-19T00:02:12.970Z,46.11
2023-01-19T00:05:17.961Z,46.63
2023-01-19T00:08:21.760Z,46.19
2023-01-19T00:11:26.153Z,46.05
2023-01-19T00:14:29.870Z,45.49
2023-01-19T00:17:34.760Z,46.19
2023-01-19T00:20:38.561Z,46.65
2023-01-19T00:23:44.749Z,46.50
2023-01-19T00:26:48.665Z,47.18
2023-01-19T00:29:53.109Z,47.18
2023-01-19T00:32:57.327Z,47.39
2023-01-19T00:36:01.522Z,48.14
2023-01-19T00:39:05.332Z,48.32
2023-01-19T00:42:31.384Z,49.09
2023-01-19T00:45:35.350Z,50.42
2023-01-19T00:48:40.300Z,50.66
2023-01-19T00:51:44.399Z,52.04
2023-01-19T00:54:48.630Z,52.75
2023-01-19T00:57:52.504Z,52.87
2023-01-19T01:00:58.688Z,54.37
2023-01-19T01:04:02.511Z,55.20
2023-01-19T01:07:07.064Z,56.12
2023-01-19T01:10:13.517Z,55.66
2023-01-19T01:13:23.768Z,56.65
2023-01-19T01:16:30.080Z,56.32
2023-01-19T01:19:34.389Z,60.06
2023-01-19T01:22:39.870Z,59.58
2023-01-19T01:25:44.464Z,59.16
2023-01-19T01:28:48.256Z,59.79
2023-01-19T01:31:52.626Z,63.81
2023-01-19T01:34:56.385Z,61.72
2023-01-19T01:38:01.682Z,61.13
2023-01-19T01:41:05.709Z,61.42
2023-01-19T01:44:50.863Z,62.39
2023-01-19T01:47:59.614Z,63.16
2023-01-19T01:51:25.832Z,63.15
2023-01-19T01:54:34.021Z,63.14
2023-01-19T01:57:43.081Z,62.97
2023-01-19T02:01:05.404Z,62.79
2023-01-19T02:04:09.996Z,64.15
2023-01-19T02:07:44.811Z,66.98
2023-01-19T02:11:08.216Z,65.42
2023-01-19T02:14:12.241Z,66.30
2023-01-19T02:17:16.680Z,67.99
2023-01-19T02:20:43.801Z,66.52
2023-01-19T02:23:51.465Z,65.42
2023-01-19T02:26:56.851Z,66.04
2023-01-19T02:30:04.543Z,65.47
2023-01-19T02:33:08.616Z,66.75
2023-01-19T02:36:15.138Z,65.16
2023-01-19T02:39:22.654Z,64.61
2023-01-19T02:42:39.058Z,64.63
2023-01-19T02:45:44.047Z,65.21
2023-01-19T02:48:48.110Z,65.54
2023-01-19T02:51:52.323Z,65.73
2023-01-19T02:55:14.299Z,66.14
2023-01-19T02:58:50.056Z,65.07
2023-01-19T03:02:35.502Z,64.92
2023-01-19T03:05:55.574Z,64.29
2023-01-19T03:09:33.350Z,63.05
2023-01-19T03:12:50.021Z,65.18
2023-01-19T03:16:00.271Z,65.47
2023-01-19T03:19:10.791Z,66.48
2023-01-19T03:22:20.417Z,66.16
2023-01-19T03:25:26.249Z,65.20
2023-01-19T03:28:31.859Z,66.02
2023-01-19T03:31:39.165Z,65.89
2023-01-19T03:34:44.231Z,66.93
2023-01-19T03:37:51.864Z,67.24
2023-01-19T03:41:03.620Z,72.43
2023-01-19T03:44:09.722Z,68.84
2023-01-19T03:47:15.931Z,70.17
2023-01-19T03:50:27.899Z,70.15
2023-01-19T03:53:32.433Z,69.43
2023-01-19T03:56:36.788Z,69.61
2023-01-19T03:59:40.684Z,68.24
2023-01-19T04:02:44.950Z,68.29
2023-01-19T04:05:48.879Z,68.45
2023-01-19T04:08:53.398Z,68.19
2023-01-19T04:11:58.125Z,68.01
2023-01-19T04:15:02.184Z,67.95
2023-01-19T04:18:08.193Z,67.99
2023-01-19T04:21:11.967Z,68.08
2023-01-19T04:24:15.878Z,68.21
2023-01-19T04:27:20.745Z,69.20
2023-01-19T04:30:25.173Z,68.83
2023-01-19T04:33:29.562Z,66.59
2023-01-19T04:36:33.530Z,65.57
2023-01-19T04:39:37.723Z,66.43
2023-01-19T04:42:46.059Z,66.17
2023-01-19T04:45:50.776Z,65.79
2023-01-19T04:48:54.869Z,65.29
2023-01-19T04:51:59.518Z,65.27
2023-01-19T04:55:04.859Z,64.97
2023-01-19T04:58:09.554Z,65.62
2023-01-19T05:01:13.583Z,65.13
2023-01-19T05:04:18.031Z,65.22
2023-01-19T05:07:22.630Z,64.53
2023-01-19T05:10:27.117Z,64.51
2023-01-19T05:13:31.162Z,64.32
2023-01-19T05:16:35.425Z,64.62
2023-01-19T05:19:39.841Z,64.41
2023-01-19T05:22:44.230Z,64.54
2023-01-19T05:25:48.145Z,64.59
2023-01-19T05:28:52.171Z,63.81
2023-01-19T05:31:56.139Z,64.08
2023-01-19T05:35:00.380Z,63.47
2023-01-19T05:38:04.682Z,63.06
2023-01-19T05:41:08.768Z,64.14
2023-01-19T05:44:13.778Z,63.65
2023-01-19T05:47:19.086Z,64.35
2023-01-19T05:50:22.983Z,64.68
2023-01-19T05:53:27.801Z,64.52
2023-01-19T05:56:31.990Z,65.38
2023-01-19T05:59:36.456Z,65.08
2023-01-19T06:02:40.688Z,64.58
2023-01-19T06:05:44.778Z,65.28
2023-01-19T06:08:48.797Z,64.08
2023-01-19T06:11:54.895Z,65.14
2023-01-19T06:14:58.807Z,64.51
2023-01-19T06:18:03.160Z,64.41
2023-01-19T06:21:09.343Z,63.75
2023-01-19T06:24:14.522Z,63.41
2023-01-19T06:27:18.606Z,63.94
2023-01-19T06:30:23.075Z,64.87
2023-01-19T06:33:29.325Z,64.65
2023-01-19T06:36:33.349Z,64.06
2023-01-19T06:39:41.971Z,62.57
2023-01-19T06:42:46.228Z,63.58
2023-01-19T06:45:51.180Z,63.08
2023-01-19T06:48:55.575Z,62.81
2023-01-19T06:51:59.523Z,63.74
2023-01-19T06:55:03.651Z,63.52
2023-01-19T06:58:08.129Z,63.44
2023-01-19T07:01:13.378Z,65.01
2023-01-19T07:04:17.383Z,64.81
2023-01-19T07:07:21.791Z,64.34
2023-01-19T07:10:26.213Z,64.76
2023-01-19T07:13:52.383Z,64.01
2023-01-19T07:16:56.328Z,63.70
2023-01-19T07:20:00.337Z,65.28
2023-01-19T07:23:05.564Z,64.79
2023-01-19T07:26:11.461Z,64.60
2023-01-19T07:29:15.266Z,64.94
2023-01-19T07:32:19.322Z,65.95
2023-01-19T07:35:23.258Z,66.76
2023-01-19T07:38:27.354Z,65.33
2023-01-19T07:41:31.317Z,65.19
2023-01-19T07:44:35.582Z,65.19
2023-01-19T07:47:39.512Z,65.10
2023-01-19T07:50:43.714Z,66.23
2023-01-19T07:53:48.058Z,66.01
2023-01-19T07:56:55.937Z,66.43
2023-01-19T07:59:59.906Z,66.20
2023-01-19T08:03:06.220Z,66.94
2023-01-19T08:06:23.390Z,67.79
2023-01-19T08:09:27.617Z,68.82
2023-01-19T08:12:31.560Z,67.60
2023-01-19T08:15:35.764Z,67.84
2023-01-19T08:18:39.772Z,67.57
2023-01-19T08:21:43.898Z,69.32
2023-01-19T08:24:50.289Z,69.46
2023-01-19T08:27:57.767Z,68.92
2023-01-19T08:31:11.150Z,67.55
2023-01-19T08:34:23.030Z,67.95
2023-01-19T08:37:27.004Z,68.94
2023-01-19T08:40:36.205Z,69.77
2023-01-19T08:43:41.760Z,67.55
2023-01-19T08:46:46.046Z,68.53
2023-01-19T08:49:50.058Z,69.40
2023-01-19T08:52:56.687Z,68.47
2023-01-19T08:56:03.470Z,68.71
2023-01-19T08:59:10.825Z,69.06
2023-01-19T09:02:15.957Z,67.94
2023-01-19T09:05:20.509Z,69.74
2023-01-19T09:08:24.429Z,69.27
2023-01-19T09:11:28.609Z,68.29
2023-01-19T09:14:32.644Z,68.87
2023-01-19T09:17:39.495Z,68.37
2023-01-19T09:20:47.737Z,69.19
2023-01-19T09:23:52.024Z,68.11
2023-01-19T09:26:56.299Z,67.64
2023-01-19T09:30:00.414Z,66.94
2023-01-19T09:33:11.707Z,66.89
2023-01-19T09:36:16.189Z,67.65
2023-01-19T09:39:20.233Z,68.20
2023-01-19T09:43:12.955Z,67.68
2023-01-19T09:46:23.761Z,66.74
2023-01-19T09:49:35.653Z,66.12
2023-01-19T09:52:45.049Z,67.32
2023-01-19T09:55:50.633Z,68.11
2023-01-19T09:58:58.252Z,67.21
2023-01-19T10:02:18.831Z,66.06
2023-01-19T10:05:32.735Z,66.95
2023-01-19T10:08:47.967Z,66.49
2023-01-19T10:12:04.505Z,65.48
2023-01-19T10:15:36.125Z,64.91
2023-01-19T10:18:50.083Z,65.67
2023-01-19T10:21:56.268Z,65.93
2023-01-19T10:25:08.076Z,64.95
2023-01-19T10:28:14.597Z,65.48
2023-01-19T10:31:23.738Z,65.11
2023-01-19T10:34:29.056Z,65.39
2023-01-19T10:37:40.185Z,64.79
2023-01-19T10:41:05.260Z,66.59
2023-01-19T10:44:11.701Z,66.05
2023-01-19T10:47:21.154Z,65.73
2023-01-19T10:50:29.170Z,64.57
2023-01-19T10:53:33.633Z,64.68
2023-01-19T10:56:39.606Z,66.38
2023-01-19T10:59:46.461Z,66.97
2023-01-19T11:02:53.907Z,65.62
2023-01-19T11:06:21.817Z,65.19
2023-01-19T11:09:26.361Z,64.75
2023-01-19T11:12:31.731Z,65.92
2023-01-19T11:15:49.873Z,65.61
2023-01-19T11:18:57.981Z,64.99
2023-01-19T11:22:34.868Z,64.25
2023-01-19T11:25:39.590Z,64.70
2023-01-19T11:28:52.224Z,65.61
2023-01-19T11:32:09.996Z,66.17
2023-01-19T11:35:42.460Z,65.01
2023-01-19T11:38:51.171Z,64.57
2023-01-19T11:42:07.325Z,64.08
2023-01-19T11:45:29.335Z,64.03
2023-01-19T11:48:49.577Z,64.57
2023-01-19T11:52:03.952Z,64.49
2023-01-19T11:55:26.207Z,65.41
2023-01-19T11:58:32.312Z,66.70
2023-01-19T12:01:42.198Z,66.58
2023-01-19T12:04:48.759Z,67.09
2023-01-19T12:07:55.049Z,65.88
2023-01-19T12:11:03.446Z,64.82
2023-01-19T12:14:17.711Z,64.34
2023-01-19T12:17:31.538Z,64.48
2023-01-19T12:20:45.740Z,65.85
2023-01-19T12:24:04.556Z,64.71
2023-01-19T12:27:40.376Z,64.73
2023-01-19T12:30:47.015Z,64.82
2023-01-19T12:33:52.064Z,65.52
2023-01-19T12:36:57.800Z,64.80
2023-01-19T12:40:21.563Z,65.33
2023-01-19T12:43:26.526Z,65.87
2023-01-19T12:46:33.764Z,65.04
2023-01-19T12:49:52.024Z,63.71
2023-01-19T12:53:01.043Z,64.70
2023-01-19T12:56:10.880Z,65.69
2023-01-19T12:59:29.885Z,65.46
2023-01-19T13:02:47.127Z,64.92
2023-01-19T13:05:59.495Z,64.35
2023-01-19T13:09:03.795Z,64.15
2023-01-19T13:12:15.323Z,63.66
2023-01-19T13:15:37.740Z,65.10
2023-01-19T13:18:42.719Z,65.11
2023-01-19T13:21:50.165Z,64.44
2023-01-19T13:25:11.612Z,64.41
2023-01-19T13:28:19.763Z,64.62
2023-01-19T13:31:26.487Z,63.12
2023-01-19T13:34:43.694Z,63.95
2023-01-19T13:37:48.714Z,62.32
2023-01-19T13:40:55.975Z,64.01
2023-01-19T13:44:05.073Z,63.81
2023-01-19T13:47:20.218Z,64.51
2023-01-19T13:50:27.764Z,64.98
2023-01-19T13:53:32.208Z,63.65
2023-01-19T13:56:38.598Z,64.62
2023-01-19T13:59:42.831Z,65.60
2023-01-19T14:02:57.899Z,63.63
2023-01-19T14:06:02.157Z,64.56
2023-01-19T14:09:20.645Z,63.20
2023-01-19T14:12:26.446Z,63.45
2023-01-19T14:15:34.924Z,64.02
2023-01-19T14:18:38.967Z,64.24
2023-01-19T14:21:43.573Z,64.75
2023-01-19T14:24:47.450Z,64.78
2023-01-19T14:27:51.864Z,65.45
2023-01-19T14:30:59.880Z,65.23
2023-01-19T14:34:04.557Z,63.84
2023-01-19T14:37:23.272Z,63.81
2023-01-19T14:40:27.940Z,62.70
2023-01-19T14:43:31.795Z,61.29
2023-01-19T14:46:36.848Z,63.21
2023-01-19T14:49:47.537Z,63.96
2023-01-19T14:53:01.774Z,63.02
2023-01-19T14:56:08.165Z,63.69
2023-01-19T14:59:12.843Z,64.70
2023-01-19T15:02:21.878Z,63.38
2023-01-19T15:05:29.514Z,64.43
2023-01-19T15:08:38.223Z,64.23
2023-01-19T15:11:43.157Z,63.63
2023-01-19T15:14:50.186Z,64.57
2023-01-19T15:17:56.396Z,63.68
2023-01-19T15:21:03.546Z,62.17
2023-01-19T15:24:07.902Z,61.92
2023-01-19T15:27:14.642Z,61.21
2023-01-19T15:30:25.579Z,61.45
2023-01-19T15:33:31.414Z,62.66
2023-01-19T15:36:35.891Z,62.87
2023-01-19T15:39:40.544Z,62.27
2023-01-19T15:42:44.995Z,62.90
2023-01-19T15:46:00.234Z,63.88
2023-01-19T15:49:07.037Z,63.90
2023-01-19T15:52:10.739Z,63.68
2023-01-19T15:55:16.800Z,64.07
2023-01-19T15:58:21.401Z,63.67
2023-01-19T16:01:35.501Z,64.59
2023-01-19T16:04:39.404Z,64.13
2023-01-19T16:07:43.915Z,64.46
2023-01-19T16:10:47.842Z,64.48
2023-01-19T16:13:52.445Z,64.53
2023-01-19T16:17:00.655Z,63.79
2023-01-19T16:20:06.634Z,63.03
2023-01-19T16:23:14.941Z,63.79
2023-01-19T16:26:27.107Z,64.53
2023-01-19T16:29:31.890Z,65.23
2023-01-19T16:32:37.329Z,66.27
2023-01-19T16:35:41.156Z,64.55
2023-01-19T16:38:45.499Z,63.68
2023-01-19T16:41:49.317Z,63.58
2023-01-19T16:44:53.940Z,64.36
2023-01-19T16:47:57.979Z,64.04
2023-01-19T16:51:09.421Z,62.56
2023-01-19T16:54:18.904Z,62.12
2023-01-19T16:57:26.091Z,62.94
2023-01-19T17:00:29.949Z,62.87
2023-01-19T17:03:34.264Z,64.00
2023-01-19T17:06:38.578Z,63.96
2023-01-19T17:09:43.246Z,64.10
2023-01-19T17:12:47.114Z,63.89
2023-01-19T17:15:52.090Z,64.95
2023-01-19T17:18:59.107Z,65.34
2023-01-19T17:22:03.472Z,64.07
2023-01-19T17:25:07.781Z,65.40
2023-01-19T17:28:12.583Z,64.36
2023-01-19T17:31:20.054Z,63.57
2023-01-19T17:34:24.509Z,64.59
2023-01-19T17:37:28.671Z,63.90
2023-01-19T17:40:33.039Z,64.35
2023-01-19T17:43:36.836Z,63.26
2023-01-19T17:46:44.312Z,64.51
2023-01-19T17:49:48.306Z,65.06
2023-01-19T17:52:55.969Z,64.46
2023-01-19T17:56:13.996Z,63.87
2023-01-19T17:59:18.457Z,63.73
2023-01-19T18:02:25.085Z,63.68
2023-01-19T18:05:29.499Z,64.28
2023-01-19T18:08:34.679Z,65.44
2023-01-19T18:11:40.841Z,64.63
2023-01-19T18:14:44.612Z,65.05
2023-01-19T18:17:48.989Z,65.96
2023-01-19T18:20:52.955Z,66.03
2023-01-19T18:24:06.010Z,66.30
2023-01-19T18:27:09.848Z,66.35
2023-01-19T18:30:15.174Z,65.31
2023-01-19T18:33:18.960Z,65.68
2023-01-19T18:36:23.340Z,65.55
2023-01-19T18:39:27.374Z,66.02
2023-01-19T18:42:31.837Z,65.35
2023-01-19T18:45:37.694Z,65.29
2023-01-19T18:48:42.362Z,65.82
2023-01-19T18:51:46.151Z,66.26
2023-01-19T18:54:50.635Z,65.97
2023-01-19T18:57:54.620Z,65.86
2023-01-19T19:54:00.097Z,64.09
2023-01-19T19:57:05.039Z,64.47
2023-01-19T20:00:10.387Z,64.18
2023-01-19T20:03:14.904Z,63.92
2023-01-19T20:06:22.765Z,64.53
2023-01-19T20:09:27.024Z,65.35
2023-01-19T20:12:30.949Z,66.23
2023-01-19T20:15:39.286Z,66.20
2023-01-19T20:18:49.316Z,66.81
2023-01-19T20:21:53.526Z,66.83
2023-01-19T20:24:57.557Z,66.96
2023-01-19T20:28:04.139Z,66.50
2023-01-19T20:31:13.393Z,65.92
2023-01-19T20:34:19.846Z,66.52
2023-01-19T20:37:24.136Z,66.53
2023-01-19T20:40:28.484Z,66.62
2023-01-19T20:43:32.633Z,66.83
2023-01-19T20:46:37.154Z,67.08
2023-01-19T20:49:41.275Z,67.20
2023-01-19T20:52:45.548Z,67.25
2023-01-19T20:55:49.943Z,67.62
2023-01-19T20:58:54.511Z,66.78
2023-01-19T21:01:58.881Z,66.69
2023-01-19T21:05:03.124Z,66.54
2023-01-19T21:08:09.858Z,66.60
2023-01-19T21:11:14.082Z,65.66
2023-01-19T21:14:18.130Z,66.06
2023-01-19T21:17:22.303Z,65.50
2023-01-19T21:20:26.439Z,66.02
2023-01-19T21:23:31.115Z,65.81
2023-01-19T21:26:35.290Z,65.56
2023-01-19T21:29:41.508Z,65.75
2023-01-19T21:32:46.017Z,65.12
2023-01-19T21:35:57.115Z,64.87
2023-01-19T21:39:01.870Z,64.19
2023-01-19T21:42:05.931Z,64.86
2023-01-19T21:45:12.828Z,64.40
2023-01-19T21:48:17.989Z,63.63
2023-01-19T21:51:22.534Z,64.60
2023-01-19T21:54:27.344Z,64.69
2023-01-19T21:57:32.143Z,64.58
2023-01-19T22:00:36.209Z,65.00
2023-01-19T22:03:41.803Z,64.57
2023-01-19T22:06:45.826Z,64.31
2023-01-19T22:09:50.739Z,63.71
2023-01-19T22:12:54.728Z,63.43
2023-01-19T22:16:11.818Z,64.03
2023-01-19T22:19:16.141Z,63.85
2023-01-19T22:22:20.933Z,64.32
2023-01-19T22:25:28.648Z,64.76
2023-01-19T22:28:34.390Z,65.03
2023-01-19T22:32:03.708Z,63.93
2023-01-19T22:35:08.130Z,64.48
2023-01-19T22:38:11.931Z,64.28
2023-01-19T22:41:41.719Z,64.47
2023-01-19T22:44:46.564Z,63.92
2023-01-19T22:47:51.559Z,64.12
2023-01-19T22:50:58.506Z,64.71
2023-01-19T22:54:03.033Z,64.46
2023-01-19T22:57:07.711Z,64.76
2023-01-19T23:00:13.376Z,64.44
2023-01-19T23:03:17.542Z,63.94
2023-01-19T23:06:24.928Z,64.33
2023-01-19T23:09:28.801Z,64.30
2023-01-19T23:12:33.195Z,63.91
2023-01-19T23:15:37.077Z,63.03
2023-01-19T23:18:42.409Z,62.95
2023-01-19T23:21:46.657Z,63.02
2023-01-19T23:24:51.077Z,63.81
2023-01-19T23:27:54.861Z,63.48
2023-01-19T23:30:59.254Z,63.79
2023-01-19T23:34:08.573Z,63.81
2023-01-19T23:37:12.980Z,64.29
2023-01-19T23:40:16.967Z,63.97
2023-01-19T23:43:21.318Z,63.13
2023-01-19T23:46:25.160Z,62.23
2023-01-19T23:49:29.623Z,62.65
2023-01-19T23:52:33.487Z,62.15
2023-01-19T23:55:37.870Z,61.74
2023-01-19T23:58:41.791Z,61.83
